Time;durP1;ratioP1;P1;durP2;ratioP2;P2;SDS_P1;SDS_P2;PMS_P1;PMS_P2;Temp;Humidity;BMP_temperature;BMP_pressure;BME280_temperature;BME280_humidity;BME280_pressure;Samples;Min_cycle;Max_cycle;Signal;HPM_P1;HPM_P2
2022/01/02 00:00:37;;;;;;;25.90;17.02;;;;;;;;;;5034818;28;20041;-74
2022/01/02 00:03:09;;;;;;;26.30;17.08;;;;;;;;;;5068078;28;20037;-74
2022/01/02 00:05:43;;;;;;;27.08;17.40;;;;;;;;;;5035883;28;20046;-74
2022/01/02 00:08:11;;;;;;;30.95;18.77;;;;;;;;;;5036253;28;20564;-74
2022/01/02 00:10:59;;;;;;;29.73;18.17;;;;;;;;;;5035764;28;20136;-74
2022/01/02 00:13:41;;;;;;;26.30;16.83;;;;;;;;;;5034623;28;20381;-74
2022/01/02 00:16:11;;;;;;;29.17;17.80;;;;;;;;;;5035421;28;20121;-74
2022/01/02 00:18:48;;;;;;;27.45;17.58;;;;;;;;;;5036015;28;20080;-74
2022/01/02 00:21:17;;;;;;;29.48;17.25;;;;;;;;;;5035939;28;20048;-74
2022/01/02 00:23:57;;;;;;;28.10;17.90;;;;;;;;;;5034119;28;20039;-74
2022/01/02 00:26:40;;;;;;;29.02;18.17;;;;;;;;;;5034196;28;20046;-74
2022/01/02 00:29:11;;;;;;;27.73;17.13;;;;;;;;;;5033311;28;20092;-74
2022/01/02 00:35:16;;;;;;;27.98;16.98;;;;;;;;;;5032987;28;20431;-74
2022/01/02 00:40:57;;;;;;;31.08;18.45;;;;;;;;;;5033092;28;20107;-74
2022/01/02 00:43:34;;;;;;;28.23;17.55;;;;;;;;;;5033629;28;20399;-74
2022/01/02 00:46:10;;;;;;;28.75;17.88;;;;;;;;;;5035393;28;20107;-74
2022/01/02 00:48:42;;;;;;;29.73;17.98;;;;;;;;;;5035636;28;20073;-74
2022/01/02 00:51:36;;;;;;;29.40;17.92;;;;;;;;;;5035535;28;20443;-74
2022/01/02 00:54:07;;;;;;;32.15;19.05;;;;;;;;;;5034458;28;20049;-74
2022/01/02 00:56:42;;;;;;;28.65;18.13;;;;;;;;;;5033522;28;20045;-74
2022/01/02 00:59:16;;;;;;;30.20;18.65;;;;;;;;;;5034030;28;20414;-74
2022/01/02 01:01:51;;;;;;;30.85;19.63;;;;;;;;;;5067163;28;20052;-74
2022/01/02 01:04:19;;;;;;;;;;;;;;;;;;5034198;28;20049;-74
2022/01/02 01:07:12;;;;;;;31.55;17.83;;;;;;;;;;5034785;28;19921;-74
2022/01/02 01:09:41;;;;;;;26.85;17.55;;;;;;;;;;5033772;28;20558;-75
2022/01/02 01:12:10;;;;;;;30.45;17.50;;;;;;;;;;5033674;28;20034;-74
2022/01/02 01:14:42;;;;;;;29.30;17.25;;;;;;;;;;5035106;28;20484;-74
2022/01/02 01:17:10;;;;;;;28.48;17.42;;;;;;;;;;5035150;28;20079;-74
2022/01/02 01:19:38;;;;;;;29.85;18.10;;;;;;;;;;5033463;28;20526;-74
2022/01/02 01:22:09;;;;;;;29.00;18.77;;;;;;;;;;5033341;28;20067;-74
2022/01/02 01:24:37;;;;;;;29.92;18.90;;;;;;;;;;5034382;28;20037;-74
2022/01/02 01:27:32;;;;;;;29.05;18.42;;;;;;;;;;5031810;28;20041;-74
2022/01/02 01:29:59;;;;;;;31.33;18.40;;;;;;;;;;5033157;28;20040;-74
2022/01/02 01:32:53;;;;;;;29.90;18.15;;;;;;;;;;5066482;28;20107;-74
2022/01/02 01:35:26;;;;;;;29.77;17.65;;;;;;;;;;5066484;28;20507;-74
2022/01/02 01:37:54;;;;;;;28.77;18.20;;;;;;;;;;5032775;28;20462;-74
2022/01/02 01:40:22;;;;;;;31.92;17.92;;;;;;;;;;5033143;28;20046;-74
2022/01/02 01:43:01;;;;;;;28.98;17.80;;;;;;;;;;5032210;28;20049;-74
2022/01/02 01:45:34;;;;;;;29.13;17.45;;;;;;;;;;5033961;28;20519;-74
2022/01/02 01:48:08;;;;;;;30.58;17.73;;;;;;;;;;5032767;28;20054;-74
2022/01/02 01:50:44;;;;;;;25.10;16.60;;;;;;;;;;5032713;28;20490;-74
2022/01/02 01:53:18;;;;;;;27.58;17.70;;;;;;;;;;5032431;28;20077;-74
2022/01/02 01:55:50;;;;;;;29.73;18.88;;;;;;;;;;5032708;28;20042;-74
2022/01/02 01:58:24;;;;;;;26.73;17.17;;;;;;;;;;5032682;28;20073;-74
2022/01/02 02:00:52;;;;;;;29.05;18.15;;;;;;;;;;5032499;28;20055;-74
2022/01/02 02:03:40;;;;;;;27.20;17.38;;;;;;;;;;5034152;28;20038;-74
2022/01/02 02:06:13;;;;;;;23.77;15.93;;;;;;;;;;5065877;28;20057;-74
2022/01/02 02:08:43;;;;;;;27.55;17.10;;;;;;;;;;5032353;28;20039;-74
2022/01/02 02:11:12;;;;;;;28.40;17.15;;;;;;;;;;5032481;28;20042;-74
2022/01/02 02:13:48;;;;;;;29.25;18.08;;;;;;;;;;5032326;28;20056;-73
2022/01/02 02:16:17;;;;;;;27.15;16.77;;;;;;;;;;5031840;28;20482;-74
2022/01/02 02:18:47;;;;;;;27.27;17.08;;;;;;;;;;5032264;28;20503;-74
2022/01/02 02:21:27;;;;;;;28.77;16.95;;;;;;;;;;5016432;28;20419;-74
2022/01/02 02:23:55;;;;;;;26.33;17.02;;;;;;;;;;5033473;28;20037;-74
2022/01/02 02:26:29;;;;;;;28.48;16.77;;;;;;;;;;5065345;28;20052;-74
2022/01/02 02:28:57;;;;;;;27.63;17.67;;;;;;;;;;5032351;28;20041;-74
2022/01/02 02:31:44;;;;;;;25.92;17.48;;;;;;;;;;5031630;28;20049;-74
2022/01/02 02:34:13;;;;;;;27.48;15.88;;;;;;;;;;5033428;28;20068;-74
2022/01/02 02:36:46;;;;;;;26.17;16.60;;;;;;;;;;5031599;28;20135;-74
2022/01/02 02:39:19;;;;;;;27.63;17.70;;;;;;;;;;5033767;28;20072;-74
2022/01/02 02:41:49;;;;;;;27.83;17.40;;;;;;;;;;5033823;28;20125;-74
2022/01/02 02:44:33;;;;;;;28.00;18.55;;;;;;;;;;5064665;28;20044;-74
2022/01/02 02:49:56;;;;;;;30.70;19.23;;;;;;;;;;5031994;28;20073;-74
2022/01/02 02:52:44;;;;;;;25.40;16.15;;;;;;;;;;5064770;28;20526;-74
2022/01/02 02:55:44;;;;;;;25.80;16.60;;;;;;;;;;5064758;28;20085;-74
2022/01/02 03:01:03;;;;;;;28.08;17.88;;;;;;;;;;5031610;28;20049;-74
2022/01/02 03:03:36;;;;;;;25.88;17.27;;;;;;;;;;5031927;28;20080;-74
2022/01/02 03:06:29;;;;;;;26.90;17.05;;;;;;;;;;5031577;28;20057;-74
2022/01/02 03:09:04;;;;;;;30.60;17.73;;;;;;;;;;5032486;28;20056;-74
2022/01/02 03:11:35;;;;;;;;;;;;;;;;;;5032376;28;20078;-74
2022/01/02 03:14:04;;;;;;;29.30;18.05;;;;;;;;;;5031914;28;20391;-73
2022/01/02 03:16:31;;;;;;;27.83;18.15;;;;;;;;;;5064999;28;20103;-74
2022/01/02 03:19:05;;;;;;;29.95;18.40;;;;;;;;;;5033059;28;20042;-74
2022/01/02 03:21:34;;;;;;;32.00;19.95;;;;;;;;;;5032743;28;20050;-74
2022/01/02 03:24:01;;;;;;;29.40;18.55;;;;;;;;;;5032008;28;20033;-74
2022/01/02 03:26:33;;;;;;;29.83;18.90;;;;;;;;;;5031610;28;20534;-74
2022/01/02 03:29:01;;;;;;;27.85;18.23;;;;;;;;;;5030419;28;20073;-74
2022/01/02 03:38:28;;;;;;;26.27;17.73;;;;;;;;;;5033071;28;20028;-75
2022/01/02 03:41:01;;;;;;;33.90;20.38;;;;;;;;;;5031391;28;20068;-75
2022/01/02 03:43:32;;;;;;;28.70;18.80;;;;;;;;;;5032062;28;20037;-74
2022/01/02 03:46:26;;;;;;;31.50;20.63;;;;;;;;;;5032837;28;20077;-74
2022/01/02 03:49:00;;;;;;;30.25;19.60;;;;;;;;;;5031554;28;20054;-74
2022/01/02 03:51:29;;;;;;;32.97;20.05;;;;;;;;;;5032540;28;20038;-74
2022/01/02 03:53:57;;;;;;;30.05;20.15;;;;;;;;;;5030919;28;20046;-74
2022/01/02 03:56:30;;;;;;;31.42;19.38;;;;;;;;;;5031317;28;20507;-74
2022/01/02 03:58:58;;;;;;;34.15;19.92;;;;;;;;;;5064634;28;20072;-74
2022/01/02 04:01:27;;;;;;;30.50;20.23;;;;;;;;;;5031349;28;20045;-74
2022/01/02 04:04:07;;;;;;;31.58;19.65;;;;;;;;;;5032715;28;20033;-74
2022/01/02 04:06:35;;;;;;;33.97;19.88;;;;;;;;;;5034668;28;20041;-74
2022/01/02 04:09:03;;;;;;;31.73;19.88;;;;;;;;;;5034716;28;20052;-74
2022/01/02 04:11:40;;;;;;;31.25;20.73;;;;;;;;;;5034939;28;20048;-74
2022/01/02 04:14:08;;;;;;;32.45;20.73;;;;;;;;;;5033975;28;20140;-74
2022/01/02 04:16:39;;;;;;;31.70;20.20;;;;;;;;;;5035923;28;20084;-74
2022/01/02 04:19:14;;;;;;;34.08;20.63;;;;;;;;;;5034763;28;20408;-74
2022/01/02 04:21:42;;;;;;;32.40;20.23;;;;;;;;;;5034509;28;20049;-74
2022/01/02 04:24:14;;;;;;;34.63;20.73;;;;;;;;;;5034749;28;20132;-74
2022/01/02 04:26:49;;;;;;;33.20;20.77;;;;;;;;;;5034530;28;20111;-74
2022/01/02 04:29:25;;;;;;;34.00;20.08;;;;;;;;;;5035769;28;20124;-74
2022/01/02 04:31:55;;;;;;;32.38;19.67;;;;;;;;;;5035788;28;20037;-74
2022/01/02 04:34:23;;;;;;;31.80;21.05;;;;;;;;;;5034126;28;20449;-74
2022/01/02 04:36:54;;;;;;;33.88;20.90;;;;;;;;;;5034755;28;20064;-74
2022/01/02 04:39:24;;;;;;;31.33;20.30;;;;;;;;;;5034369;28;20045;-74
2022/01/02 04:41:55;;;;;;;31.83;20.83;;;;;;;;;;5034490;28;20046;-73
2022/01/02 04:44:28;;;;;;;31.40;20.42;;;;;;;;;;5034179;28;20050;-73
2022/01/02 04:46:56;;;;;;;32.70;20.60;;;;;;;;;;5035862;28;20091;-74
2022/01/02 04:49:49;;;;;;;31.77;19.60;;;;;;;;;;5035439;28;20049;-74
2022/01/02 04:52:20;;;;;;;35.60;20.10;;;;;;;;;;5035303;28;20435;-73
2022/01/02 04:54:53;;;;;;;33.13;20.88;;;;;;;;;;5033840;28;20050;-73
2022/01/02 04:57:21;;;;;;;32.42;20.60;;;;;;;;;;5034106;28;20128;-73
2022/01/02 04:59:51;;;;;;;31.02;21.10;;;;;;;;;;5035256;28;20049;-73
2022/01/02 05:02:19;;;;;;;33.13;20.92;;;;;;;;;;5033762;28;20053;-73
2022/01/02 05:04:48;;;;;;;31.77;20.73;;;;;;;;;;5033184;28;20052;-74
2022/01/02 05:07:23;;;;;;;33.35;20.02;;;;;;;;;;5035375;28;20487;-73
2022/01/02 05:09:54;;;;;;;;;;;;;;;;;;5033414;28;20144;-73
2022/01/02 05:12:23;;;;;;;34.88;20.42;;;;;;;;;;5035069;28;19921;-73
2022/01/02 05:18:03;;;;;;;32.05;20.00;;;;;;;;;;5034350;28;20486;-73
2022/01/02 05:20:46;;;;;;;31.90;20.90;;;;;;;;;;5066011;28;20044;-73
2022/01/02 05:23:14;;;;;;;32.28;19.83;;;;;;;;;;5033660;28;20507;-73
2022/01/02 05:25:43;;;;;;;32.28;20.65;;;;;;;;;;5034188;28;20057;-73
2022/01/02 05:28:17;;;;;;;37.30;21.25;;;;;;;;;;5033077;28;20052;-73
2022/01/02 05:30:48;;;;;;;36.90;23.17;;;;;;;;;;5033329;28;20053;-73
2022/01/02 05:33:17;;;;;;;40.28;25.10;;;;;;;;;;5066488;28;20061;-73
2022/01/02 05:35:47;;;;;;;48.85;31.45;;;;;;;;;;5033253;28;20056;-73
2022/01/02 05:38:19;;;;;;;47.20;29.65;;;;;;;;;;5033087;28;20041;-73
2022/01/02 05:40:50;;;;;;;44.05;27.17;;;;;;;;;;5033036;28;20049;-73
2022/01/02 05:43:20;;;;;;;45.05;27.00;;;;;;;;;;5032205;28;20512;-73
2022/01/02 05:45:49;;;;;;;41.53;26.08;;;;;;;;;;5032930;28;20128;-73
2022/01/02 05:48:17;;;;;;;42.58;26.38;;;;;;;;;;5032998;28;20045;-73
2022/01/02 05:50:47;;;;;;;45.83;26.58;;;;;;;;;;5034218;28;20147;-73
2022/01/02 05:53:15;;;;;;;40.50;25.00;;;;;;;;;;5034180;28;20084;-73
2022/01/02 05:55:47;;;;;;;46.13;26.63;;;;;;;;;;5032562;28;20100;-73
2022/01/02 05:58:21;;;;;;;48.30;26.52;;;;;;;;;;5032846;28;20077;-73
2022/01/02 06:00:52;;;;;;;47.80;25.52;;;;;;;;;;5032583;28;20061;-73
2022/01/02 06:03:22;;;;;;;49.38;24.85;;;;;;;;;;5033720;28;20080;-73
2022/01/02 06:05:51;;;;;;;41.22;25.63;;;;;;;;;;5032406;28;20490;-73
2022/01/02 06:08:22;;;;;;;40.08;22.33;;;;;;;;;;5032753;28;20041;-73
2022/01/02 06:10:51;;;;;;;41.25;24.33;;;;;;;;;;5032264;28;20046;-71
2022/01/02 06:13:19;;;;;;;39.03;22.83;;;;;;;;;;5031814;28;20045;-72
2022/01/02 06:15:50;;;;;;;37.15;22.85;;;;;;;;;;5032692;28;20076;-72
2022/01/02 06:18:17;;;;;;;36.97;22.08;;;;;;;;;;5031841;28;20069;-72
2022/01/02 06:20:45;;;;;;;34.65;21.75;;;;;;;;;;5023060;28;20136;-72
2022/01/02 06:23:13;;;;;;;34.92;21.13;;;;;;;;;;5033330;28;20040;-72
2022/01/02 06:25:41;;;;;;;33.13;21.42;;;;;;;;;;5032420;28;20128;-72
2022/01/02 06:28:12;;;;;;;35.58;22.05;;;;;;;;;;5033179;28;20033;-72
2022/01/02 06:30:40;;;;;;;33.47;21.63;;;;;;;;;;5065430;28;20119;-72
2022/01/02 06:33:09;;;;;;;32.45;21.05;;;;;;;;;;5033342;28;20037;-73
2022/01/02 06:35:41;;;;;;;38.72;24.77;;;;;;;;;;5032061;28;20510;-72
2022/01/02 06:38:17;;;;;;;35.90;23.52;;;;;;;;;;5031691;28;20500;-72
2022/01/02 06:40:49;;;;;;;35.10;21.60;;;;;;;;;;5031862;28;20056;-72
2022/01/02 06:43:23;;;;;;;36.13;21.60;;;;;;;;;;5032085;28;20065;-72
2022/01/02 06:46:04;;;;;;;31.50;20.45;;;;;;;;;;5031475;28;20414;-72
2022/01/02 06:48:32;;;;;;;36.03;22.23;;;;;;;;;;5030291;28;20049;-72
2022/01/02 06:51:25;;;;;;;33.47;21.63;;;;;;;;;;5025715;28;20048;-72
2022/01/02 06:53:53;;;;;;;33.13;20.83;;;;;;;;;;5027789;28;20049;-72
2022/01/02 06:56:23;;;;;;;30.30;20.45;;;;;;;;;;5033048;28;20120;-72
2022/01/02 06:58:54;;;;;;;32.78;19.77;;;;;;;;;;5033627;28;20044;-72
2022/01/02 07:01:33;;;;;;;30.23;20.90;;;;;;;;;;5054911;28;20053;-72
2022/01/02 07:04:02;;;;;;;32.25;20.67;;;;;;;;;;5012016;28;20054;-73
2022/01/02 07:06:42;;;;;;;32.05;20.23;;;;;;;;;;5011754;28;20042;-72
2022/01/02 07:09:47;;;;;;;29.42;19.70;;;;;;;;;;5011388;28;20411;-72
2022/01/02 07:12:15;;;;;;;28.48;18.75;;;;;;;;;;5013558;28;20117;-72
2022/01/02 07:17:42;;;;;;;26.42;18.38;;;;;;;;;;5013171;28;20045;-72
2022/01/02 07:20:11;;;;;;;24.35;17.85;;;;;;;;;;5021111;28;20057;-72
2022/01/02 07:22:40;;;;;;;25.00;16.90;;;;;;;;;;5032500;28;20088;-72
2022/01/02 07:25:11;;;;;;;30.60;17.98;;;;;;;;;;5033372;28;20133;-72
2022/01/02 07:27:39;;;;;;;27.42;18.40;;;;;;;;;;5033104;28;20065;-72
2022/01/02 07:30:10;;;;;;;25.35;17.42;;;;;;;;;;5032679;28;20044;-72
2022/01/02 07:37:02;;;;;;;27.55;18.02;;;;;;;;;;5032438;28;20407;-72
2022/01/02 07:42:45;;;;;;;26.75;18.95;;;;;;;;;;5035668;28;20373;-72
2022/01/02 07:45:43;;;;;;;24.20;18.10;;;;;;;;;;5068141;28;20099;-71
2022/01/02 07:48:11;;;;;;;27.55;17.67;;;;;;;;;;5027895;28;20038;-72
2022/01/02 07:50:38;;;;;;;25.13;17.98;;;;;;;;;;5015152;28;20037;-72
2022/01/02 07:53:06;;;;;;;36.03;25.40;;;;;;;;;;5016120;28;20133;-72
2022/01/02 07:55:33;;;;;;;34.40;23.23;;;;;;;;;;5016113;28;20034;-72
2022/01/02 07:58:05;;;;;;;30.52;19.98;;;;;;;;;;5015604;28;20505;-72
2022/01/02 08:00:33;;;;;;;25.92;16.92;;;;;;;;;;5047759;28;20042;-73
2022/01/02 08:03:00;;;;;;;25.70;17.17;;;;;;;;;;5015008;28;20073;-72
2022/01/02 08:05:29;;;;;;;25.10;17.13;;;;;;;;;;5014817;28;20042;-73
2022/01/02 08:07:58;;;;;;;25.50;17.50;;;;;;;;;;5016337;28;20038;-73
2022/01/02 08:10:27;;;;;;;22.75;17.25;;;;;;;;;;5016221;28;20115;-72
2022/01/02 08:12:57;;;;;;;24.05;16.95;;;;;;;;;;5014570;28;20037;-72
2022/01/02 08:15:25;;;;;;;26.15;17.67;;;;;;;;;;5016310;28;20504;-72
2022/01/02 08:17:52;;;;;;;22.42;16.10;;;;;;;;;;5014941;28;20070;-72
2022/01/02 08:20:23;;;;;;;26.58;17.48;;;;;;;;;;5016011;28;20116;-72
2022/01/02 08:22:51;;;;;;;23.00;16.15;;;;;;;;;;5014865;28;20132;-73
2022/01/02 08:25:19;;;;;;;22.58;14.95;;;;;;;;;;5014120;28;20045;-72
2022/01/02 08:27:53;;;;;;;23.50;15.45;;;;;;;;;;5014600;28;20121;-72
2022/01/02 08:30:21;;;;;;;18.93;13.67;;;;;;;;;;5016121;28;20073;-72
2022/01/02 08:32:48;;;;;;;24.75;15.68;;;;;;;;;;5033580;28;20034;-72
2022/01/02 08:35:19;;;;;;;21.80;14.80;;;;;;;;;;5035234;28;20068;-72
2022/01/02 08:37:47;;;;;;;20.98;14.90;;;;;;;;;;5033351;28;20038;-72
2022/01/02 08:40:16;;;;;;;21.27;15.23;;;;;;;;;;5035617;28;20038;-72
2022/01/02 08:42:44;;;;;;;23.73;15.48;;;;;;;;;;5035830;28;20084;-72
2022/01/02 08:45:16;;;;;;;21.98;15.13;;;;;;;;;;5035383;28;20042;-72
2022/01/02 08:47:50;;;;;;;22.58;16.08;;;;;;;;;;5035252;28;20041;-72
2022/01/02 08:50:19;;;;;;;23.42;16.25;;;;;;;;;;5034918;28;20050;-73
2022/01/02 08:52:46;;;;;;;26.10;16.65;;;;;;;;;;5034719;28;20450;-72
2022/01/02 08:55:17;;;;;;;22.77;15.45;;;;;;;;;;5067234;28;20073;-72
2022/01/02 08:57:45;;;;;;;22.98;16.38;;;;;;;;;;5035168;28;20034;-72
2022/01/02 09:00:17;;;;;;;20.05;15.10;;;;;;;;;;5035243;28;20053;-72
2022/01/02 09:02:47;;;;;;;22.02;15.50;;;;;;;;;;5033882;28;20488;-73
2022/01/02 09:05:15;;;;;;;21.17;15.48;;;;;;;;;;5035281;28;20052;-72
2022/01/02 09:07:43;;;;;;;23.73;17.35;;;;;;;;;;5035267;28;20403;-72
2022/01/02 09:10:11;;;;;;;24.38;16.83;;;;;;;;;;5033276;28;20042;-72
2022/01/02 09:12:38;;;;;;;22.27;15.95;;;;;;;;;;5015400;28;20053;-73
2022/01/02 09:15:06;;;;;;;21.98;16.65;;;;;;;;;;5031815;28;20049;-73
2022/01/02 09:17:35;;;;;;;24.38;16.88;;;;;;;;;;5049094;28;20049;-73
2022/01/02 09:20:05;;;;;;;24.88;16.65;;;;;;;;;;5013449;28;20069;-73
2022/01/02 09:22:37;;;;;;;26.77;17.33;;;;;;;;;;5015263;28;20068;-73
2022/01/02 09:25:10;;;;;;;25.20;17.40;;;;;;;;;;5046961;28;20045;-73
2022/01/02 09:27:39;;;;;;;25.23;17.52;;;;;;;;;;5015129;28;20129;-75
2022/01/02 09:33:10;;;;;;;24.25;18.60;;;;;;;;;;5015685;28;20100;-75
2022/01/02 09:35:41;;;;;;;28.00;18.55;;;;;;;;;;5013293;28;20516;-75
2022/01/02 09:38:09;;;;;;;26.08;19.25;;;;;;;;;;5046559;28;20485;-75
2022/01/02 09:40:40;;;;;;;24.40;18.58;;;;;;;;;;5021725;28;20049;-75
2022/01/02 09:43:08;;;;;;;24.92;18.45;;;;;;;;;;5034377;28;20045;-75
2022/01/02 09:45:45;;;;;;;26.27;19.13;;;;;;;;;;5034477;28;20096;-75
2022/01/02 09:48:13;;;;;;;29.30;19.08;;;;;;;;;;5034571;28;20091;-75
2022/01/02 09:50:42;;;;;;;27.00;18.35;;;;;;;;;;5034076;28;20042;-75
2022/01/02 09:53:10;;;;;;;26.50;17.70;;;;;;;;;;5033135;28;20136;-75
2022/01/02 09:55:38;;;;;;;25.08;16.38;;;;;;;;;;5034366;28;20055;-75
2022/01/02 09:58:12;;;;;;;23.58;16.15;;;;;;;;;;5016166;28;20053;-75
2022/01/02 10:01:04;;;;;;;20.98;16.08;;;;;;;;;;5034228;28;20096;-75
2022/01/02 10:03:41;;;;;;;22.67;15.90;;;;;;;;;;5033136;28;20136;-75
2022/01/02 10:06:11;;;;;;;21.02;17.00;;;;;;;;;;5034535;28;20099;-75
2022/01/02 10:08:43;;;;;;;23.88;16.20;;;;;;;;;;5032882;28;20132;-75
2022/01/02 10:11:24;;;;;;;23.65;16.52;;;;;;;;;;5033632;28;20087;-75
2022/01/02 10:13:59;;;;;;;25.15;16.00;;;;;;;;;;5018186;28;20045;-75
2022/01/02 10:16:36;;;;;;;24.17;17.30;;;;;;;;;;5032442;28;20111;-75
2022/01/02 10:19:21;;;;;;;22.20;16.58;;;;;;;;;;5029302;28;20125;-75
2022/01/02 10:22:08;;;;;;;23.42;17.50;;;;;;;;;;5013700;28;20045;-75
2022/01/02 10:24:37;;;;;;;22.90;17.08;;;;;;;;;;5013890;28;20038;-75
2022/01/02 10:27:07;;;;;;;27.52;18.05;;;;;;;;;;5013749;28;20425;-75
2022/01/02 10:29:51;;;;;;;24.92;17.98;;;;;;;;;;5014004;28;20061;-75
2022/01/02 10:32:24;;;;;;;24.90;17.95;;;;;;;;;;5013659;28;20454;-75
2022/01/02 10:34:53;;;;;;;27.13;18.80;;;;;;;;;;5012800;28;20046;-75
2022/01/02 10:37:23;;;;;;;28.85;20.30;;;;;;;;;;5012351;28;20037;-75
2022/01/02 10:39:53;;;;;;;28.83;19.00;;;;;;;;;;5013425;28;20050;-75
2022/01/02 10:42:21;;;;;;;27.80;18.90;;;;;;;;;;5012167;28;20526;-75
2022/01/02 10:44:56;;;;;;;29.48;20.80;;;;;;;;;;5013533;28;20050;-75
2022/01/02 10:47:26;;;;;;;28.90;21.15;;;;;;;;;;5013619;28;20109;-75
2022/01/02 10:50:03;;;;;;;32.70;21.95;;;;;;;;;;5013442;28;20034;-75
2022/01/02 10:52:34;;;;;;;23.25;16.20;;;;;;;;;;5013585;28;20046;-75
2022/01/02 10:55:07;;;;;;;24.73;17.90;;;;;;;;;;5013049;28;20085;-75
2022/01/02 10:57:35;;;;;;;25.83;18.75;;;;;;;;;;5033101;28;20037;-75
2022/01/02 11:00:05;;;;;;;22.63;16.52;;;;;;;;;;5033104;28;20476;-76
2022/01/02 11:02:34;;;;;;;27.00;20.55;;;;;;;;;;5031696;28;20041;-75
2022/01/02 11:05:07;;;;;;;29.25;21.75;;;;;;;;;;5017456;28;20041;-76
2022/01/02 11:07:41;;;;;;;30.58;21.58;;;;;;;;;;5033225;28;20088;-74
2022/01/02 11:10:11;;;;;;;60.30;30.50;;;;;;;;;;5033119;28;20045;-74
2022/01/02 11:12:39;;;;;;;35.47;23.58;;;;;;;;;;5028524;28;20049;-74
2022/01/02 11:15:17;;;;;;;47.42;26.75;;;;;;;;;;5036865;28;20083;-75
2022/01/02 11:17:45;;;;;;;36.05;25.08;;;;;;;;;;5036790;28;20045;-74
2022/01/02 11:20:14;;;;;;;22.90;17.00;;;;;;;;;;5033346;28;20083;-75
2022/01/02 11:22:48;;;;;;;25.90;18.90;;;;;;;;;;5037424;28;20050;-75
2022/01/02 11:25:28;;;;;;;26.77;18.38;;;;;;;;;;5037132;28;20116;-75
2022/01/02 11:28:00;;;;;;;27.80;19.98;;;;;;;;;;5068902;28;20053;-75
2022/01/02 11:30:32;;;;;;;27.38;21.95;;;;;;;;;;5035683;28;20097;-74
2022/01/02 11:33:25;;;;;;;30.55;21.70;;;;;;;;;;5035589;28;20133;-74
2022/01/02 11:39:13;;;;;;;26.23;20.08;;;;;;;;;;5035082;28;20049;-75
2022/01/02 11:45:25;;;;;;;27.05;19.98;;;;;;;;;;5037806;28;20030;-75
2022/01/02 11:51:06;;;;;;;26.30;19.38;;;;;;;;;;5036473;28;20455;-75
2022/01/02 11:53:36;;;;;;;28.10;21.30;;;;;;;;;;5067656;28;20489;-75
2022/01/02 11:56:13;;;;;;;26.90;19.58;;;;;;;;;;5035077;28;20120;-75
2022/01/02 11:58:42;;;;;;;25.73;18.92;;;;;;;;;;5036329;28;20065;-75
2022/01/02 12:01:51;;;;;;;27.92;19.55;;;;;;;;;;5036298;28;20050;-75
2022/01/02 12:04:44;;;;;;;28.25;20.42;;;;;;;;;;5034983;28;20042;-75
2022/01/02 12:10:28;;;;;;;26.77;19.63;;;;;;;;;;5016451;28;20133;-76
2022/01/02 12:13:26;;;;;;;27.55;20.23;;;;;;;;;;5015725;28;20052;-76
2022/01/02 12:15:55;;;;;;;28.92;20.30;;;;;;;;;;5047994;28;20066;-75
2022/01/02 12:18:48;;;;;;;28.30;20.42;;;;;;;;;;5016389;28;20050;-76
2022/01/02 12:21:16;;;;;;;27.77;20.63;;;;;;;;;;5014790;28;20120;-76
2022/01/02 12:23:49;;;;;;;39.10;28.20;;;;;;;;;;5016244;28;20140;-76
2022/01/02 12:26:21;;;;;;;29.25;21.25;;;;;;;;;;5014119;28;20048;-76
2022/01/02 12:28:58;;;;;;;31.40;22.30;;;;;;;;;;5032199;28;20370;-76
2022/01/02 12:31:30;;;;;;;27.17;20.42;;;;;;;;;;5035246;28;20048;-76
2022/01/02 12:34:18;;;;;;;28.73;20.67;;;;;;;;;;5035245;28;20038;-73
2022/01/02 12:36:47;;;;;;;26.75;18.50;;;;;;;;;;5037024;28;20033;-77
2022/01/02 12:39:16;;;;;;;26.90;19.60;;;;;;;;;;5031499;28;20037;-74
2022/01/02 12:41:45;;;;;;;24.55;18.95;;;;;;;;;;5035940;28;20074;-74
2022/01/02 12:44:15;;;;;;;27.70;19.60;;;;;;;;;;5064522;28;20049;-76
2022/01/02 12:46:51;;;;;;;27.35;20.35;;;;;;;;;;5035659;28;20099;-77
2022/01/02 12:49:30;;;;;;;28.23;21.95;;;;;;;;;;5035433;28;20132;-76
2022/01/02 12:52:04;;;;;;;29.20;21.33;;;;;;;;;;5033959;28;20045;-77
2022/01/02 12:54:34;;;;;;;29.13;21.75;;;;;;;;;;5035243;28;20523;-80
2022/01/02 12:57:03;;;;;;;29.38;22.23;;;;;;;;;;5034966;28;20566;-76
2022/01/02 12:59:34;;;;;;;30.95;21.80;;;;;;;;;;5067273;28;20050;-78
2022/01/02 13:02:10;;;;;;;31.60;23.02;;;;;;;;;;5035327;28;20041;-76
2022/01/02 13:04:39;;;;;;;32.42;23.30;;;;;;;;;;5034958;28;20092;-77
2022/01/02 13:07:12;;;;;;;34.10;23.05;;;;;;;;;;5033722;28;20473;-75
2022/01/02 13:09:42;;;;;;;33.35;23.95;;;;;;;;;;5067504;28;20045;-76
2022/01/02 13:12:14;;;;;;;35.42;25.63;;;;;;;;;;5034963;28;20423;-77
2022/01/02 13:14:46;;;;;;;37.45;26.02;;;;;;;;;;5066807;28;20401;-76
2022/01/02 13:17:23;;;;;;;42.80;28.73;;;;;;;;;;5034904;28;20049;-78
2022/01/02 13:19:58;;;;;;;37.35;25.80;;;;;;;;;;5034584;28;20041;-79
2022/01/02 13:22:28;;;;;;;;;;;;;;;;;;5033955;28;20038;-73
2022/01/02 13:25:37;;;;;;;37.20;25.70;;;;;;;;;;5034657;28;19921;-74
2022/01/02 13:28:12;;;;;;;36.45;25.25;;;;;;;;;;5034771;28;20037;-74
2022/01/02 13:30:52;;;;;;;35.00;25.08;;;;;;;;;;5034985;28;20037;-82
2022/01/02 13:33:20;;;;;;;40.55;27.52;;;;;;;;;;5034497;28;20056;-78
2022/01/02 13:35:49;;;;;;;36.83;26.02;;;;;;;;;;5066609;28;20045;-75
2022/01/02 13:38:17;;;;;;;36.33;26.25;;;;;;;;;;5032804;28;20148;-77
2022/01/02 13:40:46;;;;;;;36.80;25.67;;;;;;;;;;5031200;28;20033;-77
2022/01/02 13:43:20;;;;;;;39.65;27.08;;;;;;;;;;5034175;28;20079;-78
2022/01/02 13:45:48;;;;;;;38.42;26.30;;;;;;;;;;5034432;28;20065;-75
2022/01/02 13:48:18;;;;;;;39.40;27.27;;;;;;;;;;5034662;28;20079;-78
2022/01/02 13:50:47;;;;;;;38.60;27.38;;;;;;;;;;5032513;28;20456;-77
2022/01/02 13:53:16;;;;;;;41.42;26.60;;;;;;;;;;5032842;28;20072;-77
2022/01/02 13:55:45;;;;;;;40.83;27.50;;;;;;;;;;5066137;28;20224;-75
2022/01/02 13:58:27;;;;;;;40.90;28.08;;;;;;;;;;5033039;28;20064;-80
2022/01/02 14:01:00;;;;;;;42.15;28.27;;;;;;;;;;5032784;28;20077;-77
2022/01/02 14:03:36;;;;;;;46.55;28.48;;;;;;;;;;5032725;28;20151;-78
2022/01/02 14:06:22;;;;;;;43.97;27.75;;;;;;;;;;5034296;28;20427;-77
2022/01/02 14:08:50;;;;;;;51.40;31.88;;;;;;;;;;5032164;28;20049;-79
2022/01/02 14:11:20;;;;;;;46.72;30.38;;;;;;;;;;5032758;28;20385;-79
2022/01/02 14:14:05;;;;;;;48.45;29.95;;;;;;;;;;5034152;28;20042;-80
2022/01/02 14:19:05;;;;;;;50.42;29.13;;;;;;;;;;5033921;28;19991;-75
2022/01/02 14:21:35;;;;;;;54.28;31.40;;;;;;;;;;5033106;28;20056;-80
2022/01/02 14:24:04;;;;;;;53.45;30.77;;;;;;;;;;5033967;28;20145;-79
2022/01/02 14:26:33;;;;;;;53.10;30.38;;;;;;;;;;5032288;28;20049;-80
2022/01/02 14:29:02;;;;;;;54.70;32.05;;;;;;;;;;5033454;28;20469;-79
2022/01/02 14:32:02;;;;;;;54.30;31.50;;;;;;;;;;5032315;28;20539;-76
2022/01/02 14:34:30;;;;;;;55.60;30.40;;;;;;;;;;5033728;28;20069;-76
2022/01/02 14:37:34;;;;;;;56.72;30.58;;;;;;;;;;5031929;28;20140;-75
2022/01/02 14:40:03;;;;;;;56.08;30.52;;;;;;;;;;5032912;28;20048;-74
2022/01/02 14:42:56;;;;;;;54.97;29.95;;;;;;;;;;5045103;28;20053;-78
2022/01/02 14:45:51;;;;;;;54.55;28.65;;;;;;;;;;5013184;28;20042;-74
2022/01/02 14:48:22;;;;;;;65.10;34.37;;;;;;;;;;5011870;28;20092;-79
2022/01/02 14:50:50;;;;;;;62.30;34.13;;;;;;;;;;5013565;28;20033;-78
2022/01/02 14:53:18;;;;;;;65.03;33.90;;;;;;;;;;5013135;28;20068;-77
2022/01/02 14:55:46;;;;;;;60.70;32.85;;;;;;;;;;5013118;28;20069;-79
2022/01/02 14:58:17;;;;;;;67.78;34.30;;;;;;;;;;5029531;28;20045;-77
2022/01/02 15:00:45;;;;;;;66.00;35.75;;;;;;;;;;5013342;28;20401;-76
2022/01/02 15:03:13;;;;;;;75.22;38.35;;;;;;;;;;5013499;28;20424;-79
2022/01/02 15:05:43;;;;;;;72.18;38.67;;;;;;;;;;5011767;28;20041;-77
2022/01/02 15:08:11;;;;;;;74.78;39.20;;;;;;;;;;5028554;28;20046;-76
2022/01/02 15:10:38;;;;;;;68.45;36.63;;;;;;;;;;5012912;28;20077;-76
2022/01/02 15:13:08;;;;;;;73.85;40.65;;;;;;;;;;5044780;28;20129;-75
2022/01/02 15:15:35;;;;;;;71.10;37.85;;;;;;;;;;5011963;28;20050;-77
2022/01/02 15:18:03;;;;;;;82.40;41.58;;;;;;;;;;5013182;28;20053;-79
2022/01/02 15:20:33;;;;;;;75.47;40.53;;;;;;;;;;5045077;28;20037;-82
2022/01/02 15:23:01;;;;;;;73.93;41.50;;;;;;;;;;5013223;28;20050;-76
2022/01/02 15:25:30;;;;;;;70.35;38.38;;;;;;;;;;5011813;28;20080;-79
2022/01/02 15:28:15;;;;;;;70.35;39.92;;;;;;;;;;5044752;28;20046;-77
2022/01/02 15:30:43;;;;;;;73.85;42.00;;;;;;;;;;5044736;28;20148;-76
2022/01/02 15:37:13;;;;;;;75.82;40.03;;;;;;;;;;5013374;28;20624;-77
2022/01/02 15:39:45;;;;;;;67.13;35.38;;;;;;;;;;5014110;28;20038;-77
2022/01/02 15:42:14;;;;;;;73.97;39.58;;;;;;;;;;5013048;28;20065;-77
2022/01/02 15:45:06;;;;;;;67.53;37.33;;;;;;;;;;5013496;28;20133;-77
2022/01/02 15:47:39;;;;;;;71.57;35.45;;;;;;;;;;5044803;28;20042;-77